Time;durP1;ratioP1;P1;durP2;ratioP2;P2;SDS_P1;SDS_P2;PMS_P1;PMS_P2;Temp;Humidity;BMP_temperature;BMP_pressure;BME280_temperature;BME280_humidity;BME280_pressure;Samples;Min_cycle;Max_cycle;Signal;HPM_P1;HPM_P2
2022/01/17 00:00:40;;;;;;;27.00;13.80;;;;;;;-7.34;76.74;96043.72;1796409;79;21044;-67
2022/01/17 00:03:08;;;;;;;28.30;14.07;;;;;;;-7.21;76.87;96040.16;1796034;80;21572;-68
2022/01/17 00:05:35;;;;;;;49.87;24.70;;;;;;;-7.16;76.20;96045.14;1796670;80;20969;-67
2022/01/17 00:08:01;;;;;;;59.77;24.50;;;;;;;-7.01;76.30;96047.68;1796223;80;21475;-68
2022/01/17 00:10:28;;;;;;;51.67;24.17;;;;;;;-7.03;75.60;96034.80;1796570;80;20964;-68
2022/01/17 00:12:57;;;;;;;49.97;23.47;;;;;;;-7.05;75.79;96032.94;1796322;80;21001;-68
2022/01/17 00:15:29;;;;;;;47.23;23.70;;;;;;;-7.09;75.93;96020.73;1796073;80;21029;-68
2022/01/17 00:18:08;;;;;;;47.57;23.07;;;;;;;-6.98;76.27;96016.69;1795290;80;21518;-68
2022/01/17 00:20:26;;;;;;;48.47;23.57;;;;;;;-6.87;76.22;96012.13;1792662;80;20993;-67
2022/01/17 00:22:49;;;;;;;43.43;22.07;;;;;;;-6.71;76.01;96004.85;1795624;80;20990;-68
2022/01/17 00:25:16;;;;;;;49.17;21.70;;;;;;;-6.61;75.78;96010.95;1796288;80;21017;-67
2022/01/17 00:27:42;;;;;;;50.03;24.30;;;;;;;-6.66;75.50;96002.13;1796055;80;21119;-67
2022/01/17 00:30:10;;;;;;;45.07;22.53;;;;;;;-6.69;75.41;95986.58;1796021;79;21009;-67
2022/01/17 00:32:37;;;;;;;48.43;25.20;;;;;;;-6.75;75.06;95977.28;1796279;79;20997;-68
2022/01/17 00:35:06;;;;;;;48.10;22.20;;;;;;;-6.68;75.77;95978.06;1796144;79;20970;-67
2022/01/17 00:37:32;;;;;;;42.60;21.43;;;;;;;-6.60;75.47;95974.23;1796260;80;21439;-67
2022/01/17 00:39:59;;;;;;;35.33;17.87;;;;;;;-6.57;75.38;95974.80;1796344;79;20985;-67
2022/01/17 00:42:25;;;;;;;23.77;13.00;;;;;;;-6.51;75.19;95974.23;1796237;80;21041;-67
2022/01/17 00:44:52;;;;;;;28.23;13.30;;;;;;;-6.45;75.31;95972.88;1796559;80;20976;-67
2022/01/17 00:47:18;;;;;;;30.00;14.30;;;;;;;-6.37;74.82;95963.01;1796390;80;21009;-67
2022/01/17 00:49:45;;;;;;;32.97;14.40;;;;;;;-6.28;74.79;95958.73;1796035;79;21005;-67
2022/01/17 00:52:11;;;;;;;36.07;16.87;;;;;;;-6.24;74.71;95966.67;1796698;79;20962;-67
2022/01/17 00:54:38;;;;;;;32.73;16.30;;;;;;;-6.25;75.02;95964.89;1785821;79;21464;-68
2022/01/17 00:57:05;;;;;;;32.80;15.67;;;;;;;-6.13;74.91;95963.36;1777492;80;20954;-68
2022/01/17 00:59:32;;;;;;;35.93;16.07;;;;;;;-6.12;74.76;95970.28;1777799;81;21464;-68
2022/01/17 01:01:59;;;;;;;30.70;16.57;;;;;;;-6.16;75.04;95961.92;1777911;80;20997;-67
2022/01/17 01:04:25;;;;;;;28.00;14.03;;;;;;;-6.12;75.22;95954.46;1777497;80;21089;-67
2022/01/17 01:06:52;;;;;;;28.13;14.97;;;;;;;-5.88;78.59;95952.59;1777639;81;20994;-67
2022/01/17 01:09:19;;;;;;;23.43;11.10;;;;;;;-5.61;77.85;95944.48;1777904;80;21021;-67
2022/01/17 01:11:45;;;;;;;20.93;8.67;;;;;;;-5.04;81.94;95933.88;1777382;81;21484;-67
2022/01/17 01:14:12;;;;;;;16.93;7.20;;;;;;;-4.62;82.19;95937.94;1777967;80;20997;-67
2022/01/17 01:16:38;;;;;;;11.30;6.20;;;;;;;-4.12;84.33;95925.11;1777542;80;21078;-67
2022/01/17 01:19:20;;;;;;;16.30;7.63;;;;;;;-3.45;84.66;95920.58;1777729;80;20994;-67
2022/01/17 01:22:01;;;;;;;6.23;2.53;;;;;;;-2.98;83.29;95914.21;1774406;81;21071;-67
2022/01/17 01:29:55;;;;;;;10.37;4.97;;;;;;;-1.70;80.57;95877.85;1777736;81;21018;-67
2022/01/17 01:32:21;;;;;;;12.10;5.03;;;;;;;-1.50;79.51;95894.03;1776122;81;21013;-67
2022/01/17 01:34:49;;;;;;;13.33;6.30;;;;;;;-1.36;78.95;95884.09;1777351;81;21424;-67
2022/01/17 01:37:14;;;;;;;12.43;6.17;;;;;;;-1.29;78.30;95878.29;1777037;81;21072;-67
2022/01/17 01:39:40;;;;;;;10.83;6.30;;;;;;;-1.23;77.92;95867.27;1777495;80;21005;-67
2022/01/17 01:42:17;;;;;;;11.60;6.47;;;;;;;-1.21;77.53;95865.58;1777573;81;21014;-67
2022/01/17 01:44:44;;;;;;;13.53;6.63;;;;;;;-1.15;77.27;95852.42;1777804;81;21006;-67
2022/01/17 01:47:12;;;;;;;9.87;5.97;;;;;;;-1.07;77.05;95841.00;1777495;81;20994;-67
2022/01/17 01:49:39;;;;;;;10.67;6.77;;;;;;;-1.05;77.03;95839.34;1777674;80;20986;-67
2022/01/17 01:52:07;;;;;;;7.80;3.60;;;;;;;-1.03;76.67;95830.30;1777527;81;21018;-67
2022/01/17 01:54:33;;;;;;;9.77;6.43;;;;;;;-0.99;76.87;95825.69;1781865;80;21013;-67
2022/01/17 01:57:01;;;;;;;9.80;6.10;;;;;;;-0.96;76.86;95838.33;1787458;80;21052;-67
2022/01/17 01:59:28;;;;;;;10.50;6.13;;;;;;;-0.89;76.68;95835.48;1787370;80;21025;-67
2022/01/17 02:01:55;;;;;;;9.70;5.93;;;;;;;-0.88;76.34;95837.25;1787333;80;21025;-67
2022/01/17 02:04:22;;;;;;;9.67;5.17;;;;;;;-0.85;76.52;95846.41;1787619;80;21064;-67
2022/01/17 02:06:49;;;;;;;11.33;6.20;;;;;;;-0.84;76.32;95835.62;1787377;80;21018;-67
2022/01/17 02:09:15;;;;;;;11.77;5.93;;;;;;;-0.81;76.26;95826.20;1787746;80;21045;-67
2022/01/17 02:11:42;;;;;;;12.90;6.30;;;;;;;-0.81;76.34;95825.34;1787631;80;21001;-67
2022/01/17 02:14:08;;;;;;;11.37;5.73;;;;;;;-0.80;76.17;95827.11;1787702;80;20966;-67
2022/01/17 02:16:37;;;;;;;13.40;5.90;;;;;;;-0.78;76.17;95822.83;1787403;80;21041;-67
2022/01/17 02:19:04;;;;;;;16.37;6.80;;;;;;;-0.79;75.84;95819.36;1787717;80;20990;-67
2022/01/17 02:24:02;;;;;;;13.70;6.63;;;;;;;-0.83;76.60;95825.31;1787809;80;21551;-67
2022/01/17 02:26:30;;;;;;;9.27;4.53;;;;;;;-0.79;76.42;95828.86;1787371;80;21064;-66
2022/01/17 02:28:58;;;;;;;10.17;5.97;;;;;;;-0.77;76.89;95823.30;1782604;80;21045;-67
2022/01/17 02:31:26;;;;;;;10.60;6.10;;;;;;;-0.74;76.29;95822.96;1787606;80;21527;-67
2022/01/17 02:33:53;;;;;;;7.77;4.90;;;;;;;-0.75;76.54;95832.01;1787636;80;20986;-67
2022/01/17 02:36:22;;;;;;;11.70;6.33;;;;;;;-0.78;76.99;95838.38;1787705;80;21487;-67
2022/01/17 02:38:49;;;;;;;14.17;6.77;;;;;;;-0.73;76.71;95844.56;1787655;80;21036;-67
2022/01/17 02:41:16;;;;;;;11.20;5.93;;;;;;;-0.69;76.29;95839.94;1787360;80;21045;-66
2022/01/17 02:43:45;;;;;;;10.70;6.47;;;;;;;-0.73;76.39;95831.22;1787601;80;21020;-67
2022/01/17 02:48:41;;;;;;;8.40;4.37;;;;;;;-0.70;76.24;95839.07;1787520;80;21057;-67
2022/01/17 02:51:11;;;;;;;9.73;5.80;;;;;;;-0.70;76.35;95831.72;1787348;80;21065;-66
2022/01/17 02:53:40;;;;;;;8.17;4.40;;;;;;;-0.72;76.24;95830.80;1787833;80;21478;-67
2022/01/17 02:56:08;;;;;;;15.10;7.47;;;;;;;-0.71;76.18;95815.70;1787069;80;21017;-67
2022/01/17 02:58:34;;;;;;;9.53;4.80;;;;;;;-0.70;76.22;95819.64;1787625;80;21009;-67
2022/01/17 03:01:06;;;;;;;11.13;5.40;;;;;;;-0.72;76.23;95823.89;1787321;80;21045;-67
2022/01/17 03:03:34;;;;;;;15.43;7.93;;;;;;;-0.70;76.22;95830.42;1787428;80;20997;-67
2022/01/17 03:06:01;;;;;;;11.07;5.60;;;;;;;-0.69;75.99;95834.33;1782478;80;21033;-67
2022/01/17 03:08:31;;;;;;;16.47;9.23;;;;;;;-0.70;76.43;95836.91;1787818;80;20990;-67
2022/01/17 03:11:00;;;;;;;17.30;9.53;;;;;;;-0.70;76.39;95831.72;1787510;80;21001;-67
2022/01/17 03:13:33;;;;;;;14.17;8.13;;;;;;;-0.71;76.38;95823.47;1787686;80;21028;-67
2022/01/17 03:16:05;;;;;;;21.68;11.60;;;;;;;-0.74;76.10;95800.06;1787736;80;20994;-67
2022/01/17 03:18:36;;;;;;;17.63;8.83;;;;;;;-0.74;76.51;95794.46;1787084;80;20989;-67
2022/01/17 03:21:04;;;;;;;23.37;11.67;;;;;;;-0.76;76.47;95788.35;1787986;80;21483;-67
2022/01/17 03:23:30;;;;;;;22.93;11.97;;;;;;;-0.78;76.42;95785.26;1787480;80;20986;-67
2022/01/17 03:25:57;;;;;;;24.80;12.23;;;;;;;-0.80;76.41;95785.66;1787825;80;21039;-67
2022/01/17 03:28:25;;;;;;;20.80;10.80;;;;;;;-0.83;76.88;95779.08;1787742;80;21077;-67
2022/01/17 03:30:53;;;;;;;25.23;12.57;;;;;;;-0.92;77.72;95786.19;1787380;80;20990;-67
2022/01/17 03:33:20;;;;;;;27.50;12.27;;;;;;;-0.93;77.47;95789.62;1787791;80;20981;-67
2022/01/17 03:35:48;;;;;;;22.20;10.63;;;;;;;-0.99;78.10;95807.55;1787382;80;21017;-67
2022/01/17 03:38:18;;;;;;;21.37;11.20;;;;;;;-1.05;78.30;95803.51;1788070;80;21009;-67
2022/01/17 03:40:47;;;;;;;21.83;11.53;;;;;;;-1.04;78.15;95806.55;1787786;80;21551;-67
2022/01/17 03:43:14;;;;;;;20.97;10.20;;;;;;;-1.04;77.96;95808.71;1787771;80;21448;-67
2022/01/17 03:45:42;;;;;;;22.60;11.50;;;;;;;-1.13;78.50;95809.33;1787611;80;21013;-67
2022/01/17 03:48:09;;;;;;;22.90;12.00;;;;;;;-1.15;78.62;95807.11;1787745;80;20997;-66
2022/01/17 03:50:35;;;;;;;21.17;10.83;;;;;;;-1.15;78.67;95810.13;1752283;80;21002;-67
2022/01/17 03:53:03;;;;;;;19.70;10.43;;;;;;;-1.20;79.07;95807.81;1787600;80;21539;-67
2022/01/17 03:55:32;;;;;;;29.07;15.17;;;;;;;-1.22;79.27;95824.58;1787631;80;21005;-67
2022/01/17 03:57:59;;;;;;;22.77;13.17;;;;;;;-1.19;78.95;95834.16;1787546;80;21515;-67
2022/01/17 04:00:30;;;;;;;13.27;6.53;;;;;;;-1.24;78.93;95835.72;1787822;80;21049;-67
2022/01/17 04:02:57;;;;;;;21.60;11.27;;;;;;;-1.33;79.46;95835.91;1787958;80;20993;-67
2022/01/17 04:05:25;;;;;;;18.33;10.53;;;;;;;-1.33;79.35;95844.97;1787343;80;21002;-67
2022/01/17 04:07:51;;;;;;;28.90;12.83;;;;;;;-1.43;79.93;95834.30;1788045;80;20988;-67
2022/01/17 04:10:18;;;;;;;23.00;12.37;;;;;;;-1.37;79.36;95844.41;1787804;80;21009;-67
2022/01/17 04:12:46;;;;;;;20.03;9.93;;;;;;;-1.37;79.38;95848.28;1787355;80;21049;-67
2022/01/17 04:15:13;;;;;;;26.33;13.27;;;;;;;-1.43;79.49;95844.23;1787765;80;21009;-67
2022/01/17 04:17:42;;;;;;;49.63;20.90;;;;;;;-1.46;79.72;95836.38;1787812;80;21009;-67
2022/01/17 04:20:15;;;;;;;37.13;18.10;;;;;;;-1.47;79.74;95828.12;1787479;80;21033;-67
2022/01/17 04:22:51;;;;;;;49.27;21.20;;;;;;;-1.48;79.60;95847.51;1788030;80;20998;-67
2022/01/17 04:25:14;;;;;;;68.67;35.47;;;;;;;-1.50;80.10;95856.50;1786904;80;21021;-67
2022/01/17 04:27:40;;;;;;;22.03;11.60;;;;;;;-1.55;80.38;95863.24;1787508;80;20986;-67
2022/01/17 04:30:08;;;;;;;18.47;9.97;;;;;;;-1.64;80.94;95862.55;1787452;80;21013;-67
2022/01/17 04:32:35;;;;;;;17.67;10.43;;;;;;;-1.66;80.98;95872.34;1787819;80;21436;-67
2022/01/17 04:35:02;;;;;;;26.13;12.50;;;;;;;-1.67;81.21;95867.59;1787560;80;21611;-67
2022/01/17 04:37:29;;;;;;;15.83;8.50;;;;;;;-1.70;81.57;95862.75;1787499;80;21025;-67
2022/01/17 04:39:56;;;;;;;22.73;10.03;;;;;;;-1.70;81.58;95867.92;1787994;80;21459;-67
2022/01/17 04:42:27;;;;;;;23.83;11.83;;;;;;;-1.75;81.66;95857.42;1787481;80;20962;-67
2022/01/17 04:45:10;;;;;;;15.73;8.13;;;;;;;-1.76;82.01;95848.79;1787430;80;21064;-67
2022/01/17 04:47:40;;;;;;;27.27;12.43;;;;;;;-1.77;81.95;95853.48;1787463;80;21463;-67
2022/01/17 04:50:14;;;;;;;24.47;12.20;;;;;;;-1.82;82.39;95848.99;1787498;80;21420;-67
2022/01/17 04:52:42;;;;;;;22.73;12.07;;;;;;;-1.79;82.37;95834.86;1787817;80;21029;-67
2022/01/17 04:55:11;;;;;;;25.87;13.90;;;;;;;-1.75;82.03;95835.44;1787491;80;21021;-67
2022/01/17 04:57:39;;;;;;;23.40;13.07;;;;;;;-1.73;82.00;95836.79;1787768;80;21025;-67
2022/01/17 05:00:09;;;;;;;35.67;19.47;;;;;;;-1.73;82.18;95831.20;1787600;80;21010;-67
2022/01/17 05:02:37;;;;;;;23.20;13.70;;;;;;;-1.78;82.36;95833.63;1787637;80;21005;-67
2022/01/17 05:05:05;;;;;;;22.27;13.57;;;;;;;-1.76;82.27;95849.21;1787552;80;21014;-67
2022/01/17 05:07:33;;;;;;;25.00;13.53;;;;;;;-1.75;82.14;95854.41;1787693;80;21023;-67
2022/01/17 05:10:03;;;;;;;21.90;10.90;;;;;;;-1.70;82.11;95846.80;1787781;80;21001;-67
2022/01/17 05:12:30;;;;;;;22.23;11.07;;;;;;;-1.73;81.98;95851.89;1787682;80;21013;-67
2022/01/17 05:14:57;;;;;;;19.47;10.07;;;;;;;-1.75;81.95;95858.30;1787796;80;20982;-67
2022/01/17 05:17:58;;;;;;;22.93;11.23;;;;;;;-1.76;82.16;95859.56;1787753;80;21060;-67
2022/01/17 05:19:57;;;;;;;26.80;13.10;;;;;;;-1.74;81.71;95856.58;1774409;80;21029;-67
2022/01/17 05:22:23;;;;;;;27.30;18.83;;;;;;;-1.73;81.77;95852.31;1787184;80;21012;-67
2022/01/17 05:24:49;;;;;;;16.23;8.07;;;;;;;-1.73;81.72;95832.91;1787994;80;20978;-67
2022/01/17 05:27:16;;;;;;;22.73;11.60;;;;;;;-1.75;81.75;95832.84;1787744;80;20954;-67
2022/01/17 05:29:42;;;;;;;20.87;11.57;;;;;;;-1.78;81.94;95823.28;1787715;80;20954;-67
2022/01/17 05:32:09;;;;;;;16.13;8.20;;;;;;;-1.75;81.84;95819.49;1787724;80;21108;-67
2022/01/17 05:34:40;;;;;;;22.30;9.90;;;;;;;-1.71;81.66;95813.11;1787543;80;20989;-67
2022/01/17 05:37:06;;;;;;;22.27;11.27;;;;;;;-1.71;81.52;95817.00;1787030;80;21086;-67
2022/01/17 05:39:33;;;;;;;17.60;9.13;;;;;;;-1.68;81.44;95827.47;1787633;80;21048;-67
2022/01/17 05:42:00;;;;;;;18.57;10.27;;;;;;;-1.71;81.61;95836.01;1787621;80;21002;-67
2022/01/17 05:44:26;;;;;;;20.30;10.43;;;;;;;-1.66;81.34;95820.61;1787565;80;21009;-67
2022/01/17 05:46:53;;;;;;;19.27;9.93;;;;;;;-1.65;81.17;95828.85;1787651;80;21550;-67
2022/01/17 05:49:19;;;;;;;27.07;15.10;;;;;;;-1.65;81.17;95828.85;1787643;80;20994;-67
2022/01/17 05:51:46;;;;;;;81.43;49.87;;;;;;;-1.64;81.20;95828.01;1787256;80;20945;-66
2022/01/17 05:54:13;;;;;;;22.50;12.03;;;;;;;-1.61;81.22;95834.18;1787389;80;21052;-66
2022/01/17 05:56:39;;;;;;;19.10;10.27;;;;;;;-1.62;81.09;95831.11;1787595;80;20994;-66
2022/01/17 05:59:06;;;;;;;21.67;12.30;;;;;;;-1.55;80.75;95827.02;1786745;80;21100;-68
2022/01/17 06:01:33;;;;;;;20.50;11.17;;;;;;;-1.56;80.61;95830.03;1786551;80;21533;-66
2022/01/17 06:03:59;;;;;;;14.03;7.67;;;;;;;-1.55;80.52;95817.96;1787576;80;21006;-66
2022/01/17 06:06:26;;;;;;;19.57;10.57;;;;;;;-1.55;80.23;95825.72;1786664;80;21072;-67
2022/01/17 06:08:52;;;;;;;30.27;17.93;;;;;;;-1.56;80.14;95830.03;1786601;80;21487;-66
2022/01/17 06:11:18;;;;;;;14.30;7.67;;;;;;;-1.56;80.15;95841.67;1786118;80;21076;-65
2022/01/17 06:13:45;;;;;;;16.17;9.07;;;;;;;-1.60;80.01;95829.88;1785848;80;21025;-63
2022/01/17 06:16:11;;;;;;;12.40;6.60;;;;;;;-1.54;79.87;95841.70;1787753;80;21036;-62
2022/01/17 06:18:38;;;;;;;14.77;9.30;;;;;;;-1.52;79.65;95831.86;1787355;80;21006;-66
2022/01/17 06:21:05;;;;;;;15.10;8.43;;;;;;;-1.58;79.83;95823.05;1787313;80;20981;-63
2022/01/17 06:23:32;;;;;;;16.03;9.20;;;;;;;-1.51;79.63;95827.59;1787047;80;21025;-64
2022/01/17 06:25:58;;;;;;;21.47;10.00;;;;;;;-1.50;79.54;95821.56;1787410;80;21495;-64
2022/01/17 06:28:25;;;;;;;20.67;12.97;;;;;;;-1.48;79.49;95821.21;1786641;80;20993;-65
2022/01/17 06:30:52;;;;;;;15.07;7.80;;;;;;;-1.47;79.41;95816.91;1786244;80;21518;-66
2022/01/17 06:33:19;;;;;;;22.97;13.00;;;;;;;-1.44;79.25;95813.11;1786942;80;21037;-64
2022/01/17 06:35:45;;;;;;;15.80;7.90;;;;;;;-1.39;79.44;95818.02;1786621;80;21025;-64
2022/01/17 06:38:11;;;;;;;13.87;6.90;;;;;;;-1.36;79.10;95815.51;1787139;80;21072;-63
2022/01/17 06:40:38;;;;;;;19.03;9.83;;;;;;;-1.34;79.16;95809.55;1787240;80;21006;-64
2022/01/17 06:43:08;;;;;;;12.80;6.90;;;;;;;-1.31;79.04;95807.08;1787294;80;21017;-64
2022/01/17 06:45:33;;;;;;;11.90;5.80;;;;;;;-1.27;78.89;95803.28;1787007;80;21022;-64
2022/01/17 06:48:00;;;;;;;23.87;11.63;;;;;;;-1.31;78.83;95804.48;1787692;80;20982;-66
2022/01/17 06:50:28;;;;;;;17.50;8.47;;;;;;;-1.27;78.95;95791.63;1787246;80;21040;-65
2022/01/17 06:52:54;;;;;;;13.20;6.60;;;;;;;-1.26;78.88;95798.55;1787518;80;20986;-63
2022/01/17 06:55:21;;;;;;;22.03;12.73;;;;;;;-1.22;78.54;95792.22;1787390;80;22480;-64
2022/01/17 06:57:47;;;;;;;16.03;8.00;;;;;;;-1.23;78.58;95786.59;1786526;80;21587;-65
2022/01/17 07:00:15;;;;;;;19.57;11.67;;;;;;;-1.23;78.44;95785.72;1786210;80;21131;-64
2022/01/17 07:02:41;;;;;;;23.10;12.23;;;;;;;-1.17;78.66;95789.35;1786408;80;21048;-65
2022/01/17 07:05:08;;;;;;;21.37;13.07;;;;;;;-1.09;78.42;95781.80;1786759;80;21045;-64
2022/01/17 07:07:35;;;;;;;28.57;16.33;;;;;;;-1.05;78.12;95779.78;1786732;80;21041;-65
2022/01/17 07:10:02;;;;;;;30.93;20.33;;;;;;;-0.97;78.02;95795.53;1787317;80;20978;-65
2022/01/17 07:12:28;;;;;;;28.10;18.00;;;;;;;-0.92;77.76;95796.55;1786692;80;21047;-64
2022/01/17 07:14:55;;;;;;;19.23;12.13;;;;;;;-0.88;77.34;95795.39;1785755;80;21060;-66
2022/01/17 07:17:22;;;;;;;20.60;11.30;;;;;;;-0.82;77.67;95791.21;1786222;80;21088;-64
2022/01/17 07:19:48;;;;;;;15.97;10.23;;;;;;;-0.68;77.76;95778.20;1787293;80;20985;-64
2022/01/17 07:22:15;;;;;;;14.97;8.47;;;;;;;-0.65;76.50;95760.17;1786582;80;22219;-64
2022/01/17 07:24:44;;;;;;;19.43;8.87;;;;;;;-0.68;75.59;95766.15;1787380;80;21029;-65
2022/01/17 07:27:09;;;;;;;17.50;9.63;;;;;;;-0.69;75.71;95771.27;1785843;80;21079;-65
2022/01/17 07:29:36;;;;;;;16.93;8.63;;;;;;;-0.64;75.74;95764.92;1786780;80;21018;-65
2022/01/17 07:32:05;;;;;;;16.77;9.37;;;;;;;-0.64;75.67;95760.62;1786708;80;21065;-67
2022/01/17 07:34:32;;;;;;;16.17;8.63;;;;;;;-0.66;75.77;95776.14;1780226;79;20966;-65
2022/01/17 07:36:59;;;;;;;19.00;11.57;;;;;;;-0.60;75.64;95786.22;1792146;79;21061;-65
2022/01/17 07:39:27;;;;;;;20.73;11.33;;;;;;;-0.56;76.07;95805.75;1794436;79;21047;-65
2022/01/17 07:41:54;;;;;;;19.47;10.63;;;;;;;-0.49;76.18;95822.36;1785424;79;21503;-63
2022/01/17 07:44:24;;;;;;;18.57;9.50;;;;;;;-0.39;75.90;95843.81;1800185;79;21500;-64
2022/01/17 07:47:00;;;;;;;19.30;9.90;;;;;;;-0.31;75.99;95834.52;1750448;80;20975;-64
2022/01/17 07:49:23;;;;;;;9.93;4.67;;;;;;;-0.27;75.52;95835.49;1767856;81;22317;-64
2022/01/17 07:51:58;;;;;;;19.17;10.57;;;;;;;-0.27;75.17;95804.38;1743778;82;21062;-67
2022/01/17 07:54:25;;;;;;;14.93;7.85;;;;;;;-0.31;75.48;95789.56;1770124;81;21003;-64
2022/01/17 07:56:52;;;;;;;19.47;10.97;;;;;;;-0.33;75.56;95796.03;1763834;81;21631;-63
2022/01/17 07:59:19;;;;;;;20.93;10.33;;;;;;;-0.43;76.01;95786.22;1761398;81;21054;-64
2022/01/17 08:01:45;;;;;;;20.33;10.87;;;;;;;-0.34;75.92;95771.34;1746450;81;21027;-62
2022/01/17 08:04:12;;;;;;;10.90;5.60;;;;;;;-0.30;75.86;95748.13;1761283;81;21054;-64
2022/01/17 08:06:40;;;;;;;14.70;7.33;;;;;;;-0.30;75.67;95733.00;1761396;81;21047;-65
2022/01/17 08:09:20;;;;;;;15.17;7.23;;;;;;;-0.26;75.82;95706.30;1761219;81;21097;-64
2022/01/17 08:11:49;;;;;;;13.17;7.43;;;;;;;-0.21;75.49;95685.24;1760409;81;21094;-65
2022/01/17 08:14:15;;;;;;;14.10;7.47;;;;;;;-0.17;75.27;95682.32;1762173;81;21067;-65
2022/01/17 08:16:42;;;;;;;16.63;8.57;;;;;;;-0.11;75.18;95683.32;1761517;81;21089;-64
2022/01/17 08:19:09;;;;;;;15.30;9.23;;;;;;;-0.06;75.16;95681.71;1761962;81;21014;-65
2022/01/17 08:21:35;;;;;;;15.10;8.30;;;;;;;0.08;75.11;95694.16;1761416;81;21074;-64
2022/01/17 08:24:02;;;;;;;8.97;4.87;;;;;;;0.20;74.71;95703.48;1761966;81;20991;-63
2022/01/17 08:26:29;;;;;;;14.27;7.23;;;;;;;0.18;73.37;95700.00;1738345;81;21126;-65
2022/01/17 08:28:55;;;;;;;10.10;5.83;;;;;;;0.13;73.58;95729.73;1749274;80;21453;-65
2022/01/17 08:31:22;;;;;;;10.00;5.40;;;;;;;0.08;74.04;95746.04;1729513;81;21073;-64
2022/01/17 08:33:49;;;;;;;12.70;6.90;;;;;;;0.11;73.61;95768.16;1726374;81;21038;-63
2022/01/17 08:36:19;;;;;;;13.37;6.93;;;;;;;0.05;73.33;95782.25;1743275;81;21068;-67
2022/01/17 08:38:44;;;;;;;15.07;9.60;;;;;;;0.07;73.39;95765.89;1741295;81;21006;-64
2022/01/17 08:41:10;;;;;;;22.30;12.87;;;;;;;0.12;73.50;95751.31;1744300;82;21002;-66
2022/01/17 08:43:37;;;;;;;14.70;8.57;;;;;;;0.10;73.39;95752.11;1743989;82;20986;-64
2022/01/17 08:46:06;;;;;;;12.97;6.97;;;;;;;0.15;73.62;95724.56;1744091;82;21432;-65
2022/01/17 08:48:32;;;;;;;14.80;7.60;;;;;;;0.18;73.26;95704.77;1744193;82;21005;-65
2022/01/17 08:50:58;;;;;;;15.17;8.60;;;;;;;0.16;73.34;95704.28;1743819;82;20994;-65
2022/01/17 08:53:26;;;;;;;20.23;11.60;;;;;;;0.19;73.51;95685.75;1744019;82;21061;-64
2022/01/17 08:55:53;;;;;;;15.37;8.47;;;;;;;0.21;73.34;95685.80;1746567;81;21064;-66
2022/01/17 08:58:19;;;;;;;17.50;8.97;;;;;;;0.14;73.15;95692.98;1770787;81;21550;-66
2022/01/17 09:00:46;;;;;;;18.23;9.77;;;;;;;0.11;73.34;95669.56;1770807;81;21006;-66
2022/01/17 09:03:13;;;;;;;17.40;9.67;;;;;;;0.06;73.61;95673.34;1770328;81;21025;-65
2022/01/17 09:05:40;;;;;;;18.37;9.83;;;;;;;0.05;73.68;95684.58;1770409;81;21105;-66
2022/01/17 09:08:08;;;;;;;17.17;9.87;;;;;;;0.08;73.91;95682.05;1770151;81;21484;-64
2022/01/17 09:10:36;;;;;;;17.77;10.33;;;;;;;0.15;73.88;95680.05;1770358;81;21126;-66
2022/01/17 09:13:04;;;;;;;22.50;11.17;;;;;;;0.21;73.93;95688.39;1770325;81;21086;-65
2022/01/17 09:15:31;;;;;;;21.67;11.63;;;;;;;0.28;73.78;95680.30;1770032;81;21112;-66
2022/01/17 09:17:58;;;;;;;19.27;10.43;;;;;;;0.21;73.67;95680.18;1738050;81;20998;-65
2022/01/17 09:20:24;;;;;;;16.80;9.03;;;;;;;0.01;74.77;95691.82;1769356;81;21026;-66
2022/01/17 09:22:51;;;;;;;17.30;9.20;;;;;;;-0.04;74.94;95694.73;1768890;81;21084;-65
2022/01/17 09:25:18;;;;;;;18.87;11.03;;;;;;;-0.08;75.25;95702.84;1737773;81;21590;-66
2022/01/17 09:27:44;;;;;;;17.10;10.50;;;;;;;-0.10;75.58;95699.75;1769650;81;21028;-64
2022/01/17 09:30:14;;;;;;;12.37;6.83;;;;;;;-0.17;76.15;95686.20;1770170;81;20997;-67
2022/01/17 09:32:42;;;;;;;17.77;8.30;;;;;;;-0.33;76.98;95687.53;1769837;81;21160;-67
2022/01/17 09:35:15;;;;;;;16.30;6.83;;;;;;;-0.30;76.84;95666.89;1769700;81;21053;-67
2022/01/17 09:37:41;;;;;;;8.70;5.47;;;;;;;-0.38;77.23;95673.58;1767487;81;21496;-67
2022/01/17 09:40:09;;;;;;;12.37;7.03;;;;;;;-0.43;77.31;95666.98;1769633;81;21544;-66
2022/01/17 09:42:38;;;;;;;13.63;7.63;;;;;;;-0.46;77.35;95657.84;1770261;81;21029;-66
2022/01/17 09:45:10;;;;;;;12.50;7.87;;;;;;;-0.46;77.03;95665.19;1770498;81;21094;-66
2022/01/17 09:47:38;;;;;;;11.97;6.80;;;;;;;-0.41;77.18;95667.90;1769293;81;21030;-65
2022/01/17 09:50:12;;;;;;;10.03;5.73;;;;;;;-0.46;77.21;95660.43;1769123;81;21084;-67
2022/01/17 09:52:45;;;;;;;15.60;8.57;;;;;;;-0.47;76.50;95649.63;1769946;81;21065;-65
2022/01/17 09:55:26;;;;;;;9.78;5.03;;;;;;;-0.37;76.55;95652.02;1770781;81;21022;-65
2022/01/17 09:58:04;;;;;;;11.93;6.83;;;;;;;-0.36;76.36;95632.59;1770092;81;21050;-67
2022/01/17 10:00:34;;;;;;;15.37;7.97;;;;;;;-0.31;76.02;95624.93;1758462;81;21042;-65
2022/01/17 10:03:06;;;;;;;6.00;3.73;;;;;;;-0.22;75.79;95605.71;1769609;81;21350;-65
2022/01/17 10:05:34;;;;;;;10.37;5.53;;;;;;;-0.09;75.43;95602.97;1775080;81;21524;-66
2022/01/17 10:08:20;;;;;;;13.50;8.37;;;;;;;-0.04;75.23;95593.14;1774967;81;21086;-67
2022/01/17 10:11:04;;;;;;;14.53;9.30;;;;;;;0.08;74.76;95588.66;1775576;81;21031;-66
2022/01/17 10:13:37;;;;;;;15.87;9.10;;;;;;;0.16;74.20;95582.33;1775871;81;21070;-66
2022/01/17 10:16:11;;;;;;;9.38;5.75;;;;;;;0.23;74.27;95582.02;1776142;81;20999;-67
2022/01/17 10:18:44;;;;;;;11.30;7.37;;;;;;;0.15;73.76;95572.78;1775236;81;21055;-66
2022/01/17 10:21:20;;;;;;;11.43;7.45;;;;;;;0.07;73.74;95594.67;1775189;81;21031;-67
2022/01/17 10:35:33;;;;;;;10.23;4.80;;;;;;;-0.19;75.03;95597.99;1776051;81;21075;-67
2022/01/17 10:38:07;;;;;;;14.10;7.43;;;;;;;-0.22;75.31;95574.17;1776005;81;21047;-66
2022/01/17 10:40:47;;;;;;;11.80;7.70;;;;;;;-0.28;75.76;95565.36;1776490;81;21566;-66
2022/01/17 10:43:38;;;;;;;11.70;6.03;;;;;;;-0.31;76.22;95563.58;1774741;81;21066;-66
2022/01/17 10:46:11;;;;;;;18.07;9.00;;;;;;;-0.32;76.31;95530.73;1776321;81;21024;-66
2022/01/17 10:48:44;;;;;;;17.05;9.90;;;;;;;-0.31;76.78;95510.43;1776453;81;21015;-66
2022/01/17 10:51:14;;;;;;;14.40;8.53;;;;;;;-0.16;76.33;95503.41;1776291;81;21079;-66
2022/01/17 10:53:41;;;;;;;13.57;7.20;;;;;;;-0.04;76.45;95484.64;1776048;81;21023;-67
2022/01/17 10:56:11;;;;;;;15.50;9.37;;;;;;;0.05;75.69;95487.83;1775013;81;21540;-67
2022/01/17 10:58:39;;;;;;;14.47;9.20;;;;;;;0.14;75.83;95457.75;1779038;81;21051;-67
2022/01/17 11:01:11;;;;;;;11.87;7.47;;;;;;;0.37;75.88;95432.66;1778762;81;21042;-67
2022/01/17 11:03:42;;;;;;;12.83;7.00;;;;;;;0.67;74.35;95426.25;1778913;81;21019;-68
2022/01/17 11:06:13;;;;;;;13.60;8.13;;;;;;;1.13;73.29;95416.57;1779745;81;21466;-67
2022/01/17 11:08:41;;;;;;;19.80;10.30;;;;;;;1.37;72.06;95412.16;1831798;78;21048;-68
2022/01/17 11:11:11;;;;;;;14.40;9.20;;;;;;;1.36;71.10;95383.10;1832438;78;21460;-67
2022/01/17 11:13:43;;;;;;;14.77;7.80;;;;;;;1.61;71.15;95389.06;1832533;78;21034;-67
2022/01/17 11:16:13;;;;;;;11.53;6.80;;;;;;;1.59;70.04;95379.09;1832392;78;21025;-66
2022/01/17 11:18:44;;;;;;;12.47;7.73;;;;;;;1.70;69.70;95376.18;1832516;78;21017;-66
2022/01/17 11:21:15;;;;;;;13.47;7.13;;;;;;;1.67;69.58;95381.78;1832530;78;21496;-66
2022/01/17 11:23:47;;;;;;;13.90;8.27;;;;;;;1.58;70.08;95359.56;1832309;78;21076;-66
2022/01/17 11:26:16;;;;;;;16.33;9.70;;;;;;;1.29;70.46;95360.08;1832325;78;21484;-66
2022/01/17 11:28:44;;;;;;;12.63;8.40;;;;;;;1.17;70.94;95392.39;1832344;78;21033;-66
2022/01/17 11:31:15;;;;;;;17.97;10.20;;;;;;;0.83;72.17;95396.66;1832563;78;20979;-67
2022/01/17 11:33:46;;;;;;;12.07;6.60;;;;;;;0.70;72.81;95401.62;1832879;78;21081;-67
2022/01/17 11:36:12;;;;;;;19.20;11.23;;;;;;;0.45;73.92;95421.98;1832473;78;21001;-67
2022/01/17 11:38:44;;;;;;;11.87;6.87;;;;;;;0.25;75.02;95406.05;1832348;78;20958;-67
2022/01/17 11:41:30;;;;;;;16.50;9.43;;;;;;;0.09;76.09;95431.28;1806974;78;21049;-67
2022/01/17 11:44:08;;;;;;;16.03;10.83;;;;;;;0.03;76.28;95410.42;1832744;78;20978;-67
2022/01/17 11:46:53;;;;;;;13.83;8.43;;;;;;;-0.12;77.03;95410.58;1832672;78;20990;-66
2022/01/17 11:49:35;;;;;;;14.47;7.30;;;;;;;-0.19;77.74;95429.88;1832550;78;21026;-67
2022/01/17 11:52:01;;;;;;;16.40;9.63;;;;;;;-0.23;77.98;95431.51;1831968;78;21102;-66